sensor_id;sensor_type;location;lat;lon;timestamp;pressure;altitude;pressure_sealevel;temperature;humidity
25510;BME280;13413;52.336;21.200;2023-02-01T00:02:50;99111.42;;;6.45;68.15
25510;BME280;13413;52.336;21.200;2023-02-01T00:05:44;99109.23;;;6.48;68.05
25510;BME280;13413;52.336;21.200;2023-02-01T00:08:38;99107.74;;;6.50;67.87
25510;BME280;13413;52.336;21.200;2023-02-01T00:11:32;99106.20;;;6.56;67.79
25510;BME280;13413;52.336;21.200;2023-02-01T00:14:26;99093.73;;;6.55;67.91
25510;BME280;13413;52.336;21.200;2023-02-01T00:17:21;99088.48;;;6.50;68.26
25510;BME280;13413;52.336;21.200;2023-02-01T00:20:15;99088.44;;;6.55;68.16
25510;BME280;13413;52.336;21.200;2023-02-01T00:23:09;99092.52;;;6.55;68.28
25510;BME280;13413;52.336;21.200;2023-02-01T00:26:04;99090.17;;;6.62;68.21
25510;BME280;13413;52.336;21.200;2023-02-01T00:29:00;99092.30;;;6.65;68.17
25510;BME280;13413;52.336;21.200;2023-02-01T00:31:54;99098.88;;;6.76;68.02
25510;BME280;13413;52.336;21.200;2023-02-01T00:34:48;99109.20;;;6.77;68.10
25510;BME280;13413;52.336;21.200;2023-02-01T00:37:45;99109.16;;;6.83;68.04
25510;BME280;13413;52.336;21.200;2023-02-01T00:40:39;99113.73;;;6.87;67.93
25510;BME280;13413;52.336;21.200;2023-02-01T00:43:33;99112.53;;;6.84;68.14
25510;BME280;13413;52.336;21.200;2023-02-01T00:46:29;99112.55;;;6.94;67.89
25510;BME280;13413;52.336;21.200;2023-02-01T00:49:21;99111.05;;;6.92;67.86
25510;BME280;13413;52.336;21.200;2023-02-01T00:52:15;99115.27;;;6.99;67.63
25510;BME280;13413;52.336;21.200;2023-02-01T00:55:10;99110.50;;;7.07;67.44
25510;BME280;13413;52.336;21.200;2023-02-01T00:58:04;99113.10;;;7.06;67.36
25510;BME280;13413;52.336;21.200;2023-02-01T01:01:06;99114.56;;;7.07;67.28
25510;BME280;13413;52.336;21.200;2023-02-01T01:04:01;99119.11;;;7.10;67.08
25510;BME280;13413;52.336;21.200;2023-02-01T01:06:55;99122.77;;;7.04;66.92
25510;BME280;13413;52.336;21.200;2023-02-01T01:12:59;99116.70;;;7.12;66.43
25510;BME280;13413;52.336;21.200;2023-02-01T01:15:53;99118.73;;;7.10;66.19
25510;BME280;13413;52.336;21.200;2023-02-01T01:18:48;99121.08;;;7.14;66.07
25510;BME280;13413;52.336;21.200;2023-02-01T01:21:42;99125.65;;;7.08;65.99
25510;BME280;13413;52.336;21.200;2023-02-01T01:24:36;99129.09;;;7.07;65.80
25510;BME280;13413;52.336;21.200;2023-02-01T01:27:30;99131.39;;;7.07;65.58
25510;BME280;13413;52.336;21.200;2023-02-01T01:30:24;99133.03;;;7.05;65.38
25510;BME280;13413;52.336;21.200;2023-02-01T01:33:18;99141.78;;;7.04;65.29
25510;BME280;13413;52.336;21.200;2023-02-01T01:36:13;99149.30;;;7.03;65.18
25510;BME280;13413;52.336;21.200;2023-02-01T01:39:07;99145.70;;;6.99;65.05
25510;BME280;13413;52.336;21.200;2023-02-01T01:42:01;99154.73;;;7.04;64.97
25510;BME280;13413;52.336;21.200;2023-02-01T01:45:03;99149.36;;;7.07;65.01
25510;BME280;13413;52.336;21.200;2023-02-01T01:47:59;99152.52;;;7.02;64.87
25510;BME280;13413;52.336;21.200;2023-02-01T01:50:58;99150.30;;;7.01;64.86
25510;BME280;13413;52.336;21.200;2023-02-01T01:54:00;99154.77;;;6.95;64.44
25510;BME280;13413;52.336;21.200;2023-02-01T01:56:59;99151.48;;;6.98;64.82
25510;BME280;13413;52.336;21.200;2023-02-01T01:59:59;99153.45;;;6.94;64.43
25510;BME280;13413;52.336;21.200;2023-02-01T02:02:54;99155.70;;;6.90;64.26
25510;BME280;13413;52.336;21.200;2023-02-01T02:11:31;99152.30;;;6.82;63.97
25510;BME280;13413;52.336;21.200;2023-02-01T02:14:26;99154.72;;;6.90;64.10
25510;BME280;13413;52.336;21.200;2023-02-01T02:17:31;99158.92;;;6.85;63.89
25510;BME280;13413;52.336;21.200;2023-02-01T02:20:43;99150.19;;;6.86;63.79
25510;BME280;13413;52.336;21.200;2023-02-01T02:27:09;99159.42;;;6.75;63.61
25510;BME280;13413;52.336;21.200;2023-02-01T02:33:53;99165.63;;;6.83;63.45
25510;BME280;13413;52.336;21.200;2023-02-01T02:36:58;99167.25;;;6.86;63.35
25510;BME280;13413;52.336;21.200;2023-02-01T02:39:59;99179.15;;;6.82;63.43
25510;BME280;13413;52.336;21.200;2023-02-01T02:42:59;99178.95;;;6.72;63.28
25510;BME280;13413;52.336;21.200;2023-02-01T02:45:58;99176.64;;;6.80;63.26
25510;BME280;13413;52.336;21.200;2023-02-01T02:48:58;99186.23;;;6.79;63.12
25510;BME280;13413;52.336;21.200;2023-02-01T02:51:59;99188.78;;;6.76;63.07
25510;BME280;13413;52.336;21.200;2023-02-01T02:54:56;99190.95;;;6.85;63.01
25510;BME280;13413;52.336;21.200;2023-02-01T02:57:53;99195.29;;;6.82;62.96
25510;BME280;13413;52.336;21.200;2023-02-01T03:00:50;99197.77;;;6.79;62.80
25510;BME280;13413;52.336;21.200;2023-02-01T03:03:46;99197.92;;;6.84;62.76
25510;BME280;13413;52.336;21.200;2023-02-01T03:06:42;99198.14;;;6.83;62.80
25510;BME280;13413;52.336;21.200;2023-02-01T03:09:38;99191.48;;;6.83;62.72
25510;BME280;13413;52.336;21.200;2023-02-01T03:12:34;99200.84;;;6.86;62.69
25510;BME280;13413;52.336;21.200;2023-02-01T03:15:37;99202.06;;;6.85;62.76
25510;BME280;13413;52.336;21.200;2023-02-01T03:18:39;99205.81;;;6.87;62.58
25510;BME280;13413;52.336;21.200;2023-02-01T03:21:40;99203.84;;;6.81;62.71
25510;BME280;13413;52.336;21.200;2023-02-01T03:24:38;99216.27;;;6.88;62.72
25510;BME280;13413;52.336;21.200;2023-02-01T03:27:36;99203.48;;;6.90;62.74
25510;BME280;13413;52.336;21.200;2023-02-01T03:30:36;99201.45;;;6.92;62.65
25510;BME280;13413;52.336;21.200;2023-02-01T03:33:32;99199.60;;;6.89;62.62
25510;BME280;13413;52.336;21.200;2023-02-01T03:36:28;99208.80;;;6.88;62.74
25510;BME280;13413;52.336;21.200;2023-02-01T03:39:27;99214.73;;;6.81;62.64
25510;BME280;13413;52.336;21.200;2023-02-01T03:42:30;99218.70;;;6.83;62.73
25510;BME280;13413;52.336;21.200;2023-02-01T03:45:30;99216.73;;;6.76;63.06
25510;BME280;13413;52.336;21.200;2023-02-01T03:48:25;99219.46;;;6.73;63.15
25510;BME280;13413;52.336;21.200;2023-02-01T03:51:21;99220.88;;;6.62;63.47
25510;BME280;13413;52.336;21.200;2023-02-01T03:54:17;99214.98;;;6.59;63.71
25510;BME280;13413;52.336;21.200;2023-02-01T03:57:16;99215.42;;;6.56;63.76
25510;BME280;13413;52.336;21.200;2023-02-01T04:00:18;99216.27;;;6.49;64.00
25510;BME280;13413;52.336;21.200;2023-02-01T04:03:12;99214.58;;;6.47;64.07
25510;BME280;13413;52.336;21.200;2023-02-01T04:06:07;99216.96;;;6.49;64.09
25510;BME280;13413;52.336;21.200;2023-02-01T04:09:00;99212.87;;;6.46;64.22
25510;BME280;13413;52.336;21.200;2023-02-01T04:11:54;99220.76;;;6.48;64.17
25510;BME280;13413;52.336;21.200;2023-02-01T04:14:48;99219.64;;;6.49;64.24
25510;BME280;13413;52.336;21.200;2023-02-01T04:17:42;99220.70;;;6.47;64.18
25510;BME280;13413;52.336;21.200;2023-02-01T04:20:36;99220.05;;;6.54;64.14
25510;BME280;13413;52.336;21.200;2023-02-01T04:23:29;99221.31;;;6.52;64.27
25510;BME280;13413;52.336;21.200;2023-02-01T04:31:27;99225.85;;;6.57;64.32
25510;BME280;13413;52.336;21.200;2023-02-01T04:34:22;99219.30;;;6.53;64.20
25510;BME280;13413;52.336;21.200;2023-02-01T04:37:16;99224.63;;;6.54;64.32
25510;BME280;13413;52.336;21.200;2023-02-01T04:40:12;99228.65;;;6.53;64.25
25510;BME280;13413;52.336;21.200;2023-02-01T04:43:06;99234.67;;;6.58;64.17
25510;BME280;13413;52.336;21.200;2023-02-01T04:45:59;99234.96;;;6.63;64.10
25510;BME280;13413;52.336;21.200;2023-02-01T04:48:54;99232.86;;;6.62;64.10
25510;BME280;13413;52.336;21.200;2023-02-01T04:51:48;99236.12;;;6.63;64.04
25510;BME280;13413;52.336;21.200;2023-02-01T04:54:43;99234.67;;;6.70;63.94
25510;BME280;13413;52.336;21.200;2023-02-01T04:57:37;99240.15;;;6.73;63.76
25510;BME280;13413;52.336;21.200;2023-02-01T05:00:30;99244.56;;;6.76;63.69
25510;BME280;13413;52.336;21.200;2023-02-01T05:03:24;99242.66;;;6.80;63.62
25510;BME280;13413;52.336;21.200;2023-02-01T05:06:18;99247.26;;;6.84;63.48
25510;BME280;13413;52.336;21.200;2023-02-01T05:09:12;99244.13;;;6.84;63.39
25510;BME280;13413;52.336;21.200;2023-02-01T05:12:07;99247.41;;;6.89;63.26
25510;BME280;13413;52.336;21.200;2023-02-01T05:15:02;99248.27;;;6.89;63.16
25510;BME280;13413;52.336;21.200;2023-02-01T05:17:57;99242.20;;;6.88;63.09
25510;BME280;13413;52.336;21.200;2023-02-01T05:20:51;99239.00;;;6.90;62.90
25510;BME280;13413;52.336;21.200;2023-02-01T05:23:45;99240.05;;;6.87;62.77
25510;BME280;13413;52.336;21.200;2023-02-01T05:26:39;99239.89;;;6.87;62.74
25510;BME280;13413;52.336;21.200;2023-02-01T05:29:35;99235.60;;;6.91;62.66
25510;BME280;13413;52.336;21.200;2023-02-01T05:32:30;99234.36;;;6.86;62.55
25510;BME280;13413;52.336;21.200;2023-02-01T05:35:24;99237.57;;;6.92;62.35
25510;BME280;13413;52.336;21.200;2023-02-01T05:38:18;99237.02;;;6.91;62.41
25510;BME280;13413;52.336;21.200;2023-02-01T05:41:12;99237.61;;;6.87;62.30
25510;BME280;13413;52.336;21.200;2023-02-01T05:44:06;99230.73;;;6.80;62.27
25510;BME280;13413;52.336;21.200;2023-02-01T05:47:00;99229.83;;;6.84;62.09
25510;BME280;13413;52.336;21.200;2023-02-01T05:49:54;99227.02;;;6.92;62.08
25510;BME280;13413;52.336;21.200;2023-02-01T05:52:48;99230.23;;;6.92;61.98
25510;BME280;13413;52.336;21.200;2023-02-01T05:55:43;99235.21;;;6.95;61.96
25510;BME280;13413;52.336;21.200;2023-02-01T05:58:37;99240.08;;;6.94;61.91
25510;BME280;13413;52.336;21.200;2023-02-01T06:01:31;99237.79;;;6.91;61.90
25510;BME280;13413;52.336;21.200;2023-02-01T06:04:25;99236.34;;;6.92;61.73
25510;BME280;13413;52.336;21.200;2023-02-01T06:07:19;99233.25;;;6.96;61.68
25510;BME280;13413;52.336;21.200;2023-02-01T06:10:13;99234.68;;;6.97;61.63
25510;BME280;13413;52.336;21.200;2023-02-01T06:13:07;99236.09;;;6.88;61.53
25510;BME280;13413;52.336;21.200;2023-02-01T06:16:02;99229.25;;;6.92;61.40
25510;BME280;13413;52.336;21.200;2023-02-01T06:18:57;99229.77;;;6.97;61.22
25510;BME280;13413;52.336;21.200;2023-02-01T06:21:51;99223.52;;;6.94;61.27
25510;BME280;13413;52.336;21.200;2023-02-01T06:24:45;99218.66;;;7.00;61.35
25510;BME280;13413;52.336;21.200;2023-02-01T06:27:39;99218.48;;;6.98;61.22
25510;BME280;13413;52.336;21.200;2023-02-01T06:30:33;99219.09;;;6.96;61.32
25510;BME280;13413;52.336;21.200;2023-02-01T06:33:27;99214.80;;;6.91;61.30
25510;BME280;13413;52.336;21.200;2023-02-01T06:36:21;99208.36;;;6.89;61.35
25510;BME280;13413;52.336;21.200;2023-02-01T06:39:15;99213.84;;;6.90;61.17
25510;BME280;13413;52.336;21.200;2023-02-01T06:42:09;99215.43;;;6.98;61.24
25510;BME280;13413;52.336;21.200;2023-02-01T06:50:48;99219.58;;;6.91;61.29
25510;BME280;13413;52.336;21.200;2023-02-01T06:53:42;99222.95;;;6.94;61.44
25510;BME280;13413;52.336;21.200;2023-02-01T06:56:35;99218.63;;;7.04;61.22
25510;BME280;13413;52.336;21.200;2023-02-01T06:59:30;99222.30;;;7.08;61.30
25510;BME280;13413;52.336;21.200;2023-02-01T07:02:23;99223.04;;;7.02;61.33
25510;BME280;13413;52.336;21.200;2023-02-01T07:05:18;99220.20;;;6.92;61.45
25510;BME280;13413;52.336;21.200;2023-02-01T07:08:11;99227.69;;;6.93;61.39
25510;BME280;13413;52.336;21.200;2023-02-01T07:11:07;99230.88;;;6.95;61.43
25510;BME280;13413;52.336;21.200;2023-02-01T07:14:02;99236.34;;;6.89;61.43
25510;BME280;13413;52.336;21.200;2023-02-01T07:16:55;99224.11;;;6.97;61.36
25510;BME280;13413;52.336;21.200;2023-02-01T07:19:49;99223.15;;;6.96;61.27
25510;BME280;13413;52.336;21.200;2023-02-01T07:22:43;99219.52;;;6.97;61.28
25510;BME280;13413;52.336;21.200;2023-02-01T07:25:37;99220.78;;;6.93;61.35
25510;BME280;13413;52.336;21.200;2023-02-01T07:28:33;99228.89;;;6.85;61.59
25510;BME280;13413;52.336;21.200;2023-02-01T07:31:28;99226.92;;;6.91;61.43
25510;BME280;13413;52.336;21.200;2023-02-01T07:34:21;99229.48;;;6.99;61.37
25510;BME280;13413;52.336;21.200;2023-02-01T07:37:15;99230.66;;;7.03;61.19
25510;BME280;13413;52.336;21.200;2023-02-01T07:40:11;99232.19;;;7.02;61.22
25510;BME280;13413;52.336;21.200;2023-02-01T07:43:05;99234.60;;;6.99;61.19
25510;BME280;13413;52.336;21.200;2023-02-01T07:45:58;99242.77;;;7.03;61.34
25510;BME280;13413;52.336;21.200;2023-02-01T07:48:53;99241.84;;;7.05;61.30
25510;BME280;13413;52.336;21.200;2023-02-01T07:51:47;99239.52;;;6.99;61.48
25510;BME280;13413;52.336;21.200;2023-02-01T07:54:40;99236.17;;;6.99;61.63
25510;BME280;13413;52.336;21.200;2023-02-01T07:57:34;99239.39;;;7.00;61.74
25510;BME280;13413;52.336;21.200;2023-02-01T08:00:28;99233.34;;;7.00;61.68
25510;BME280;13413;52.336;21.200;2023-02-01T08:03:22;99230.33;;;6.96;61.83
25510;BME280;13413;52.336;21.200;2023-02-01T08:06:16;99227.66;;;6.89;61.91
25510;BME280;13413;52.336;21.200;2023-02-01T08:09:11;99226.86;;;6.95;62.07
25510;BME280;13413;52.336;21.200;2023-02-01T08:12:06;99222.60;;;6.95;62.07
25510;BME280;13413;52.336;21.200;2023-02-01T08:15:00;99220.04;;;6.91;62.05
25510;BME280;13413;52.336;21.200;2023-02-01T08:17:55;99227.16;;;6.91;62.20
25510;BME280;13413;52.336;21.200;2023-02-01T08:20:48;99230.74;;;6.94;62.24
25510;BME280;13413;52.336;21.200;2023-02-01T08:23:43;99223.54;;;6.94;62.39
25510;BME280;13413;52.336;21.200;2023-02-01T08:26:38;99221.05;;;6.93;62.39
25510;BME280;13413;52.336;21.200;2023-02-01T08:29:31;99219.75;;;6.97;62.34
25510;BME280;13413;52.336;21.200;2023-02-01T08:32:26;99219.84;;;7.05;62.36
25510;BME280;13413;52.336;21.200;2023-02-01T08:35:20;99225.65;;;7.01;62.35
25510;BME280;13413;52.336;21.200;2023-02-01T08:38:13;99223.54;;;6.98;62.38
25510;BME280;13413;52.336;21.200;2023-02-01T08:41:29;99227.45;;;7.08;62.26
25510;BME280;13413;52.336;21.200;2023-02-01T08:44:24;99216.55;;;7.03;62.08
25510;BME280;13413;52.336;21.200;2023-02-01T08:47:17;99219.16;;;7.17;61.99
25510;BME280;13413;52.336;21.200;2023-02-01T08:50:14;99223.86;;;7.22;61.90
25510;BME280;13413;52.336;21.200;2023-02-01T08:53:08;99221.86;;;7.22;61.72
25510;BME280;13413;52.336;21.200;2023-02-01T08:56:03;99227.80;;;7.12;61.84
25510;BME280;13413;52.336;21.200;2023-02-01T08:58:57;99226.78;;;7.22;61.87
25510;BME280;13413;52.336;21.200;2023-02-01T09:01:51;99233.73;;;7.18;62.04
25510;BME280;13413;52.336;21.200;2023-02-01T09:11:04;99238.02;;;7.16;62.71
25510;BME280;13413;52.336;21.200;2023-02-01T09:13:59;99238.40;;;7.10;62.88
25510;BME280;13413;52.336;21.200;2023-02-01T09:16:52;99238.67;;;7.09;62.84
25510;BME280;13413;52.336;21.200;2023-02-01T09:19:46;99238.81;;;7.15;62.73
25510;BME280;13413;52.336;21.200;2023-02-01T09:22:41;99237.07;;;7.14;62.70
25510;BME280;13413;52.336;21.200;2023-02-01T09:25:36;99232.05;;;7.11;62.69
25510;BME280;13413;52.336;21.200;2023-02-01T09:28:31;99229.64;;;7.10;62.61
25510;BME280;13413;52.336;21.200;2023-02-01T09:31:25;99225.23;;;7.22;62.56
25510;BME280;13413;52.336;21.200;2023-02-01T09:34:19;99219.89;;;7.24;62.36
25510;BME280;13413;52.336;21.200;2023-02-01T09:37:14;99219.80;;;7.22;62.35
25510;BME280;13413;52.336;21.200;2023-02-01T09:40:13;99224.13;;;7.29;61.77
25510;BME280;13413;52.336;21.200;2023-02-01T09:43:20;99219.60;;;7.32;61.52
25510;BME280;13413;52.336;21.200;2023-02-01T09:46:39;99220.63;;;7.44;61.25
25510;BME280;13413;52.336;21.200;2023-02-01T09:49:36;99220.46;;;7.54;61.11
25510;BME280;13413;52.336;21.200;2023-02-01T09:52:36;99228.64;;;7.46;60.82
25510;BME280;13413;52.336;21.200;2023-02-01T09:55:37;99224.58;;;7.58;60.51
25510;BME280;13413;52.336;21.200;2023-02-01T09:58:36;99224.21;;;7.58;60.18
25510;BME280;13413;52.336;21.200;2023-02-01T10:01:32;99227.29;;;7.57;60.05
25510;BME280;13413;52.336;21.200;2023-02-01T10:04:28;99233.35;;;7.65;59.86
25510;BME280;13413;52.336;21.200;2023-02-01T10:07:36;99236.98;;;7.67;59.94
25510;BME280;13413;52.336;21.200;2023-02-01T10:10:37;99236.38;;;7.67;59.67
25510;BME280;13413;52.336;21.200;2023-02-01T10:13:43;99242.77;;;7.75;59.78
25510;BME280;13413;52.336;21.200;2023-02-01T10:16:46;99233.56;;;7.69;59.39
25510;BME280;13413;52.336;21.200;2023-02-01T10:19:51;99234.48;;;7.69;59.40
25510;BME280;13413;52.336;21.200;2023-02-01T10:22:59;99230.55;;;7.81;59.34
25510;BME280;13413;52.336;21.200;2023-02-01T10:25:55;99232.48;;;7.84;59.22
25510;BME280;13413;52.336;21.200;2023-02-01T10:28:51;99229.14;;;7.87;59.20
25510;BME280;13413;52.336;21.200;2023-02-01T10:31:46;99232.30;;;7.85;58.94
25510;BME280;13413;52.336;21.200;2023-02-01T10:34:40;99227.77;;;7.88;58.88
25510;BME280;13413;52.336;21.200;2023-02-01T10:37:35;99230.38;;;7.91;58.80
25510;BME280;13413;52.336;21.200;2023-02-01T10:40:31;99229.00;;;7.92;58.67
25510;BME280;13413;52.336;21.200;2023-02-01T10:43:25;99225.76;;;7.91;58.64
25510;BME280;13413;52.336;21.200;2023-02-01T10:46:19;99227.67;;;7.93;58.41
25510;BME280;13413;52.336;21.200;2023-02-01T10:49:19;99232.51;;;8.00;58.48
25510;BME280;13413;52.336;21.200;2023-02-01T10:52:18;99225.38;;;7.90;58.32
25510;BME280;13413;52.336;21.200;2023-02-01T10:55:47;99222.49;;;7.91;58.29
25510;BME280;13413;52.336;21.200;2023-02-01T10:58:46;99226.81;;;7.96;58.10
25510;BME280;13413;52.336;21.200;2023-02-01T11:01:43;99220.33;;;7.97;58.23
25510;BME280;13413;52.336;21.200;2023-02-01T11:04:38;99225.70;;;7.98;58.14
25510;BME280;13413;52.336;21.200;2023-02-01T11:07:34;99223.49;;;8.00;58.27
25510;BME280;13413;52.336;21.200;2023-02-01T11:10:38;99220.43;;;7.99;57.94
25510;BME280;13413;52.336;21.200;2023-02-01T11:13:36;99220.45;;;8.06;58.12
25510;BME280;13413;52.336;21.200;2023-02-01T11:19:26;99215.76;;;8.03;57.95
25510;BME280;13413;52.336;21.200;2023-02-01T11:22:19;99218.73;;;8.10;57.87
25510;BME280;13413;52.336;21.200;2023-02-01T11:30:47;99213.52;;;8.05;57.42
25510;BME280;13413;52.336;21.200;2023-02-01T11:33:47;99208.81;;;8.15;57.45
25510;BME280;13413;52.336;21.200;2023-02-01T11:36:42;99208.44;;;8.25;57.51
25510;BME280;13413;52.336;21.200;2023-02-01T11:39:39;99207.02;;;8.26;57.37
25510;BME280;13413;52.336;21.200;2023-02-01T11:42:33;99200.54;;;8.26;57.17
25510;BME280;13413;52.336;21.200;2023-02-01T11:45:29;99194.78;;;8.31;57.28
25510;BME280;13413;52.336;21.200;2023-02-01T11:48:25;99191.97;;;8.28;57.27
25510;BME280;13413;52.336;21.200;2023-02-01T11:51:30;99189.66;;;8.29;57.09
25510;BME280;13413;52.336;21.200;2023-02-01T11:54:47;99194.05;;;8.34;57.17
25510;BME280;13413;52.336;21.200;2023-02-01T11:57:54;99191.60;;;8.30;57.21
25510;BME280;13413;52.336;21.200;2023-02-01T12:01:03;99191.67;;;8.27;57.34
25510;BME280;13413;52.336;21.200;2023-02-01T12:07:32;99193.66;;;8.19;57.35
25510;BME280;13413;52.336;21.200;2023-02-01T12:10:38;99193.12;;;8.26;57.50
25510;BME280;13413;52.336;21.200;2023-02-01T12:13:53;99190.30;;;8.30;57.40
25510;BME280;13413;52.336;21.200;2023-02-01T12:16:56;99185.25;;;8.33;57.41
25510;BME280;13413;52.336;21.200;2023-02-01T12:20:09;99181.33;;;8.35;57.16
25510;BME280;13413;52.336;21.200;2023-02-01T12:23:16;99181.54;;;8.29;57.17
25510;BME280;13413;52.336;21.200;2023-02-01T12:26:38;99180.32;;;8.29;57.33
25510;BME280;13413;52.336;21.200;2023-02-01T12:30:07;99184.08;;;8.32;57.48
25510;BME280;13413;52.336;21.200;2023-02-01T12:33:12;99185.23;;;8.26;57.63
25510;BME280;13413;52.336;21.200;2023-02-01T12:36:15;99189.86;;;8.27;58.06
25510;BME280;13413;52.336;21.200;2023-02-01T12:39:21;99196.43;;;8.11;58.60
25510;BME280;13413;52.336;21.200;2023-02-01T12:42:19;99191.38;;;8.17;58.72
25510;BME280;13413;52.336;21.200;2023-02-01T12:48:32;99185.64;;;8.28;58.96
25510;BME280;13413;52.336;21.200;2023-02-01T12:51:28;99187.72;;;8.28;58.80
25510;BME280;13413;52.336;21.200;2023-02-01T12:54:28;99195.10;;;8.36;58.51
25510;BME280;13413;52.336;21.200;2023-02-01T12:57:27;99192.84;;;8.40;58.68
25510;BME280;13413;52.336;21.200;2023-02-01T13:00:26;99194.96;;;8.51;58.57
25510;BME280;13413;52.336;21.200;2023-02-01T13:03:37;99196.07;;;8.47;58.50
25510;BME280;13413;52.336;21.200;2023-02-01T13:06:34;99195.86;;;8.47;58.65
25510;BME280;13413;52.336;21.200;2023-02-01T13:09:34;99197.42;;;8.54;58.63
25510;BME280;13413;52.336;21.200;2023-02-01T13:12:36;99203.05;;;8.65;58.60
25510;BME280;13413;52.336;21.200;2023-02-01T13:15:36;99199.21;;;8.62;58.24
25510;BME280;13413;52.336;21.200;2023-02-01T13:18:37;99200.48;;;8.63;58.15
25510;BME280;13413;52.336;21.200;2023-02-01T13:21:35;99201.57;;;8.54;58.13
25510;BME280;13413;52.336;21.200;2023-02-01T13:24:36;99205.69;;;8.60;58.15
25510;BME280;13413;52.336;21.200;2023-02-01T13:27:32;99204.60;;;8.61;58.14
25510;BME280;13413;52.336;21.200;2023-02-01T13:30:34;99205.19;;;8.64;58.07
25510;BME280;13413;52.336;21.200;2023-02-01T13:33:51;99201.56;;;8.63;58.00
25510;BME280;13413;52.336;21.200;2023-02-01T13:37:01;99197.77;;;8.60;58.04
25510;BME280;13413;52.336;21.200;2023-02-01T13:40:02;99203.42;;;8.62;57.97
25510;BME280;13413;52.336;21.200;2023-02-01T13:42:57;99201.35;;;8.66;58.02
25510;BME280;13413;52.336;21.200;2023-02-01T13:51:53;99204.86;;;8.59;57.71
25510;BME280;13413;52.336;21.200;2023-02-01T13:54:49;99205.52;;;8.56;57.45
25510;BME280;13413;52.336;21.200;2023-02-01T14:04:49;99197.09;;;8.62;57.39
25510;BME280;13413;52.336;21.200;2023-02-01T14:08:08;99196.08;;;8.58;57.55
25510;BME280;13413;52.336;21.200;2023-02-01T14:11:34;99191.95;;;8.50;57.78
25510;BME280;13413;52.336;21.200;2023-02-01T14:14:45;99192.91;;;8.48;57.58
25510;BME280;13413;52.336;21.200;2023-02-01T14:17:42;99193.80;;;8.44;57.72
25510;BME280;13413;52.336;21.200;2023-02-01T14:20:43;99191.08;;;8.49;57.63
25510;BME280;13413;52.336;21.200;2023-02-01T14:23:41;99194.99;;;8.46;57.67
25510;BME280;13413;52.336;21.200;2023-02-01T14:26:46;99195.39;;;8.49;57.51
25510;BME280;13413;52.336;21.200;2023-02-01T14:29:42;99197.80;;;8.47;57.57
25510;BME280;13413;52.336;21.200;2023-02-01T14:32:39;99193.83;;;8.42;57.59
25510;BME280;13413;52.336;21.200;2023-02-01T14:35:34;99196.14;;;8.42;57.69
25510;BME280;13413;52.336;21.200;2023-02-01T14:38:28;99193.04;;;8.44;57.55
25510;BME280;13413;52.336;21.200;2023-02-01T14:41:41;99191.66;;;8.44;57.69
25510;BME280;13413;52.336;21.200;2023-02-01T14:44:38;99194.55;;;8.42;57.67
25510;BME280;13413;52.336;21.200;2023-02-01T14:47:34;99198.70;;;8.43;57.74
25510;BME280;13413;52.336;21.200;2023-02-01T14:50:34;99202.02;;;8.35;57.94
25510;BME280;13413;52.336;21.200;2023-02-01T14:53:34;99200.02;;;8.34;57.98
25510;BME280;13413;52.336;21.200;2023-02-01T14:56:29;99198.94;;;8.32;57.89
25510;BME280;13413;52.336;21.200;2023-02-01T14:59:27;99195.45;;;8.32;57.99
25510;BME280;13413;52.336;21.200;2023-02-01T15:02:26;99190.02;;;8.24;58.11
25510;BME280;13413;52.336;21.200;2023-02-01T15:05:37;99192.98;;;8.24;58.12
25510;BME280;13413;52.336;21.200;2023-02-01T15:08:33;99190.67;;;8.24;57.97
25510;BME280;13413;52.336;21.200;2023-02-01T15:11:28;99194.34;;;8.22;57.93
25510;BME280;13413;52.336;21.200;2023-02-01T15:14:23;99190.98;;;8.23;57.90
25510;BME280;13413;52.336;21.200;2023-02-01T15:17:22;99199.61;;;8.17;58.07
25510;BME280;13413;52.336;21.200;2023-02-01T15:20:19;99195.60;;;8.09;57.92
25510;BME280;13413;52.336;21.200;2023-02-01T15:23:27;99192.31;;;8.14;57.86
25510;BME280;13413;52.336;21.200;2023-02-01T15:26:30;99194.20;;;8.15;57.86
25510;BME280;13413;52.336;21.200;2023-02-01T15:29:25;99194.03;;;8.15;57.78
25510;BME280;13413;52.336;21.200;2023-02-01T15:32:32;99203.36;;;8.09;57.87
25510;BME280;13413;52.336;21.200;2023-02-01T15:35:41;99198.66;;;8.16;57.84
25510;BME280;13413;52.336;21.200;2023-02-01T15:38:41;99200.50;;;8.12;57.79
25510;BME280;13413;52.336;21.200;2023-02-01T15:41:36;99203.04;;;8.10;57.73
25510;BME280;13413;52.336;21.200;2023-02-01T15:44:33;99211.69;;;8.17;57.59
25510;BME280;13413;52.336;21.200;2023-02-01T15:47:29;99208.95;;;8.19;57.40
25510;BME280;13413;52.336;21.200;2023-02-01T15:50:25;99212.52;;;8.10;57.44
25510;BME280;13413;52.336;21.200;2023-02-01T15:53:22;99215.59;;;8.17;57.42
25510;BME280;13413;52.336;21.200;2023-02-01T15:56:17;99212.80;;;8.21;57.38
25510;BME280;13413;52.336;21.200;2023-02-01T15:59:17;99210.84;;;8.21;57.40
25510;BME280;13413;52.336;21.200;2023-02-01T16:02:29;99203.52;;;8.22;57.44
25510;BME280;13413;52.336;21.200;2023-02-01T16:11:27;99201.04;;;8.28;57.57
25510;BME280;13413;52.336;21.200;2023-02-01T16:14:22;99202.30;;;8.19;57.65
25510;BME280;13413;52.336;21.200;2023-02-01T16:17:17;99197.88;;;8.22;57.74
25510;BME280;13413;52.336;21.200;2023-02-01T16:20:12;99206.02;;;8.19;57.70
25510;BME280;13413;52.336;21.200;2023-02-01T16:23:08;99201.86;;;8.14;57.92
25510;BME280;13413;52.336;21.200;2023-02-01T16:26:03;99207.98;;;8.13;57.99
25510;BME280;13413;52.336;21.200;2023-02-01T16:28:58;99213.42;;;8.00;58.28
25510;BME280;13413;52.336;21.200;2023-02-01T16:31:52;99213.11;;;8.03;58.29
25510;BME280;13413;52.336;21.200;2023-02-01T16:34:47;99210.88;;;7.98;58.57
25510;BME280;13413;52.336;21.200;2023-02-01T16:37:40;99206.09;;;8.03;58.61
25510;BME280;13413;52.336;21.200;2023-02-01T16:40:33;99205.45;;;8.03;58.67
25510;BME280;13413;52.336;21.200;2023-02-01T16:43:27;99209.73;;;8.09;58.64
25510;BME280;13413;52.336;21.200;2023-02-01T16:46:23;99206.17;;;8.02;58.74
25510;BME280;13413;52.336;21.200;2023-02-01T16:49:21;99213.38;;;8.01;58.95